Time;durP1;ratioP1;P1;durP2;ratioP2;P2;SDS_P1;SDS_P2;PMS_P1;PMS_P2;Temp;Humidity;BMP_temperature;BMP_pressure;BME280_temperature;BME280_humidity;BME280_pressure;Samples;Min_cycle;Max_cycle;Signal;HPM_P1;HPM_P2
2022/04/04 00:00:43;;;;;;;75.53;45.38;;;0.50;99.90;;;;;;5086664;28;20407;-77
2022/04/04 00:03:12;;;;;;;73.10;44.28;;;0.50;99.90;;;;;;5089106;28;20075;-79
2022/04/04 00:05:40;;;;;;;66.82;42.00;;;0.50;99.90;;;;;;5077742;28;20041;-78
2022/04/04 00:08:08;;;;;;;77.35;45.45;;;0.50;99.90;;;;;;5076526;28;20514;-78
2022/04/04 00:10:36;;;;;;;87.65;45.50;;;0.50;99.90;;;;;;5076713;28;20051;-79
2022/04/04 00:13:04;;;;;;;76.78;46.90;;;0.50;99.90;;;;;;5057749;28;20052;-77
2022/04/04 00:15:32;;;;;;;98.03;54.97;;;0.30;99.90;;;;;;5082966;28;20046;-77
2022/04/04 00:18:07;;;;;;;102.50;59.92;;;0.20;99.90;;;;;;5080064;28;20047;-78
2022/04/04 00:20:36;;;;;;;110.53;66.95;;;0.10;99.90;;;;;;5079566;28;20078;-78
2022/04/04 00:23:03;;;;;;;111.80;63.00;;;0.10;99.90;;;;;;5081857;28;20048;-78
2022/04/04 00:25:31;;;;;;;110.53;64.70;;;0.00;99.90;;;;;;5084367;28;20040;-79
2022/04/04 00:27:58;;;;;;;114.03;66.35;;;0.00;99.90;;;;;;5084335;28;20138;-77
2022/04/04 00:30:26;;;;;;;104.43;60.03;;;0.00;99.90;;;;;;5084861;28;20040;-78
2022/04/04 00:32:54;;;;;;;99.00;57.20;;;0.10;99.90;;;;;;5101651;28;20052;-79
2022/04/04 00:35:21;;;;;;;91.20;53.80;;;0.10;99.90;;;;;;5101348;28;20054;-78
2022/04/04 00:37:50;;;;;;;92.22;53.70;;;0.10;99.90;;;;;;5082376;28;20047;-79
2022/04/04 00:40:18;;;;;;;102.70;58.35;;;0.10;99.90;;;;;;5082687;28;20051;-78
2022/04/04 00:42:46;;;;;;;103.43;60.03;;;0.10;99.90;;;;;;5098304;28;20123;-78
2022/04/04 00:45:13;;;;;;;108.60;60.05;;;0.10;99.90;;;;;;5100181;28;20048;-79
2022/04/04 00:47:41;;;;;;;97.18;57.63;;;0.10;99.90;;;;;;5100181;28;20042;-80
2022/04/04 00:50:09;;;;;;;106.38;59.92;;;0.10;99.90;;;;;;5082774;28;20054;-79
2022/04/04 00:52:37;;;;;;;107.22;61.55;;;0.00;99.90;;;;;;5100400;28;20039;-79
2022/04/04 00:55:09;;;;;;;114.15;62.10;;;0.00;99.90;;;;;;5099709;28;20051;-78
2022/04/04 00:57:38;;;;;;;111.82;61.05;;;0.00;99.90;;;;;;5099613;28;20404;-78
2022/04/04 01:00:09;;;;;;;102.43;63.42;;;0.00;99.90;;;;;;5081932;28;20074;-79
2022/04/04 01:02:36;;;;;;;102.18;62.30;;;-0.10;99.90;;;;;;5098108;28;20048;-78
2022/04/04 01:05:05;;;;;;;98.05;59.17;;;-0.10;99.90;;;;;;5080338;28;20050;-77
2022/04/04 01:07:34;;;;;;;96.93;58.97;;;-0.10;99.90;;;;;;5098970;28;20032;-77
2022/04/04 01:10:01;;;;;;;97.95;60.03;;;-0.20;99.90;;;;;;5100031;28;20047;-78
2022/04/04 01:12:30;;;;;;;99.85;62.92;;;-0.30;99.90;;;;;;5079918;28;20044;-78
2022/04/04 01:14:58;;;;;;;114.70;67.82;;;-0.30;99.90;;;;;;5080277;28;20396;-77
2022/04/04 01:17:27;;;;;;;104.07;68.38;;;-0.30;99.90;;;;;;5079287;28;20043;-79
2022/04/04 01:19:55;;;;;;;112.18;69.05;;;-0.40;99.90;;;;;;5078891;28;20047;-77
2022/04/04 01:22:24;;;;;;;107.25;67.30;;;-0.30;99.90;;;;;;5059922;28;20048;-78
2022/04/04 01:24:53;;;;;;;106.45;67.13;;;-0.30;99.90;;;;;;5060886;28;20049;-77
2022/04/04 01:27:20;;;;;;;105.80;66.05;;;-0.30;99.90;;;;;;5078138;28;20064;-78
2022/04/04 01:29:48;;;;;;;110.60;65.72;;;-0.30;99.90;;;;;;5059679;28;20044;-78
2022/04/04 01:32:15;;;;;;;87.80;57.05;;;-0.30;99.90;;;;;;5059565;28;20496;-78
2022/04/04 01:34:43;;;;;;;83.88;55.67;;;-0.40;99.90;;;;;;5060104;28;20049;-78
2022/04/04 01:37:10;;;;;;;94.70;59.53;;;-0.40;99.90;;;;;;5078169;28;20040;-79
2022/04/04 01:39:39;;;;;;;96.07;60.63;;;-0.40;99.90;;;;;;5078358;28;20555;-79
2022/04/04 01:42:08;;;;;;;108.70;63.47;;;-0.40;99.90;;;;;;5079995;28;20477;-78
2022/04/04 01:44:36;;;;;;;104.15;62.20;;;-0.50;99.90;;;;;;5080191;28;20052;-77
2022/04/04 01:47:05;;;;;;;96.20;59.20;;;-0.50;99.90;;;;;;5098978;28;20032;-77
2022/04/04 01:49:32;;;;;;;98.32;60.33;;;-0.50;99.90;;;;;;5080232;28;20071;-78
2022/04/04 01:51:59;;;;;;;99.53;58.22;;;-0.50;99.90;;;;;;5098226;28;20044;-79
2022/04/04 01:54:27;;;;;;;91.68;59.13;;;-0.50;99.90;;;;;;5097610;28;20490;-78
2022/04/04 01:56:55;;;;;;;92.47;57.00;;;-0.50;99.90;;;;;;5096973;28;20046;-78
2022/04/04 01:59:24;;;;;;;85.10;53.15;;;-0.50;99.90;;;;;;5096927;28;20050;-77
2022/04/04 02:01:51;;;;;;;83.13;55.28;;;-0.50;99.90;;;;;;5098233;28;20079;-79
2022/04/04 02:04:18;;;;;;;89.80;56.60;;;-0.60;99.90;;;;;;5097364;28;20048;-79
2022/04/04 02:06:46;;;;;;;91.57;58.15;;;-0.60;99.90;;;;;;5078672;28;20068;-77
2022/04/04 02:09:14;;;;;;;98.00;58.80;;;-0.60;99.90;;;;;;5082387;28;20048;-78
2022/04/04 02:11:42;;;;;;;95.45;58.90;;;-0.60;99.90;;;;;;5083853;28;20126;-78
2022/04/04 02:14:09;;;;;;;90.68;57.58;;;-0.60;99.90;;;;;;5101703;28;20048;-77
2022/04/04 02:16:38;;;;;;;93.65;56.67;;;-0.60;99.90;;;;;;5098839;28;20036;-78
2022/04/04 02:19:06;;;;;;;92.88;57.15;;;-0.60;99.90;;;;;;5097652;28;20561;-78
2022/04/04 02:21:33;;;;;;;94.03;55.83;;;-0.70;99.90;;;;;;5078719;28;20491;-78
2022/04/04 02:24:01;;;;;;;91.18;55.85;;;-0.70;99.90;;;;;;5082666;28;20041;-78
2022/04/04 02:26:29;;;;;;;103.10;62.08;;;-0.70;99.90;;;;;;5076760;28;20125;-78
2022/04/04 02:28:56;;;;;;;101.65;60.60;;;-0.70;99.90;;;;;;5076850;28;20037;-76
2022/04/04 02:31:23;;;;;;;110.15;63.35;;;-0.70;99.90;;;;;;5059043;28;20071;-77
2022/04/04 02:33:53;;;;;;;106.72;62.13;;;-0.70;99.90;;;;;;5089137;28;20075;-77
2022/04/04 02:36:21;;;;;;;95.28;56.15;;;-0.70;99.90;;;;;;5096886;28;20043;-78
2022/04/04 02:38:49;;;;;;;98.68;58.60;;;-0.70;99.90;;;;;;5096811;28;20058;-79
2022/04/04 02:41:17;;;;;;;89.65;54.10;;;-0.70;99.90;;;;;;5098105;28;20407;-76
2022/04/04 02:43:44;;;;;;;89.72;53.13;;;-0.70;99.90;;;;;;5068129;28;20076;-77
2022/04/04 02:46:14;;;;;;;87.40;53.33;;;-0.70;99.90;;;;;;5060105;28;20068;-78
2022/04/04 02:48:42;;;;;;;84.78;50.95;;;-0.70;99.90;;;;;;5077376;28;20109;-78
2022/04/04 02:51:11;;;;;;;93.60;59.15;;;-0.80;99.90;;;;;;5076760;28;20036;-78
2022/04/04 02:53:39;;;;;;;94.70;59.15;;;-0.80;99.90;;;;;;5067873;28;20043;-78
2022/04/04 02:58:51;;;;;;;108.22;61.85;;;-0.90;99.90;;;;;;5078401;28;20418;-77
2022/04/04 03:01:20;;;;;;;106.50;62.47;;;-0.90;99.90;;;;;;5095744;28;20127;-78
2022/04/04 03:03:48;;;;;;;105.22;60.67;;;-0.90;99.90;;;;;;5068201;28;20502;-78
2022/04/04 03:06:17;;;;;;;100.50;58.05;;;-1.00;99.90;;;;;;5077941;28;20060;-78
2022/04/04 03:08:44;;;;;;;92.00;57.95;;;-1.00;99.90;;;;;;5076422;28;20041;-78
2022/04/04 03:11:12;;;;;;;94.78;57.30;;;-1.00;99.90;;;;;;5077204;28;20059;-78
2022/04/04 03:13:39;;;;;;;88.22;54.90;;;-1.10;99.90;;;;;;5079577;28;20457;-78
2022/04/04 03:16:07;;;;;;;95.05;57.30;;;-1.10;99.90;;;;;;5080422;28;20533;-79
2022/04/04 03:18:35;;;;;;;95.05;56.83;;;-1.10;99.90;;;;;;5065551;28;20126;-78
2022/04/04 03:21:04;;;;;;;92.18;56.72;;;-1.10;99.90;;;;;;5082260;28;20064;-78
2022/04/04 03:23:33;;;;;;;90.45;55.05;;;-1.10;99.90;;;;;;5078766;28;20070;-77
2022/04/04 03:26:01;;;;;;;87.93;51.75;;;-1.10;99.90;;;;;;5105219;28;20046;-77
2022/04/04 03:28:29;;;;;;;81.88;49.20;;;-1.10;99.90;;;;;;5075164;28;20577;-77
2022/04/04 03:30:57;;;;;;;85.20;51.70;;;-1.10;99.90;;;;;;5096916;28;20048;-77
2022/04/04 03:33:24;;;;;;;87.47;53.65;;;-1.10;99.90;;;;;;5107391;28;20040;-77
2022/04/04 03:35:53;;;;;;;95.55;55.30;;;-1.10;99.90;;;;;;5110219;28;20028;-77
2022/04/04 03:38:20;;;;;;;88.38;53.15;;;-1.20;99.90;;;;;;5100755;28;20052;-77
2022/04/04 03:40:49;;;;;;;91.88;57.08;;;-1.20;99.90;;;;;;5088065;28;20098;-78
2022/04/04 03:43:16;;;;;;;90.88;56.85;;;-1.30;99.90;;;;;;5086408;28;20055;-79
2022/04/04 03:45:44;;;;;;;96.35;59.90;;;-1.30;99.90;;;;;;5086193;28;20055;-79
2022/04/04 03:48:12;;;;;;;99.38;64.45;;;-1.30;99.90;;;;;;5089739;28;20036;-78
2022/04/04 03:50:40;;;;;;;112.80;70.60;;;-1.30;99.90;;;;;;5084635;28;20053;-77
2022/04/04 03:53:08;;;;;;;106.15;67.88;;;-1.30;99.90;;;;;;5096323;28;20494;-77
2022/04/04 03:55:39;;;;;;;130.32;76.28;;;-1.30;99.90;;;;;;5097192;28;20033;-77
2022/04/04 03:58:09;;;;;;;117.38;72.68;;;-1.40;99.90;;;;;;5086455;28;20063;-79
2022/04/04 04:00:37;;;;;;;95.88;59.75;;;-1.50;99.90;;;;;;5084956;28;20036;-78
2022/04/04 04:03:05;;;;;;;81.88;52.20;;;-1.50;99.90;;;;;;5088383;28;20403;-78
2022/04/04 04:05:33;;;;;;;80.63;51.58;;;-1.60;99.90;;;;;;5072383;28;20058;-78
2022/04/04 04:08:01;;;;;;;72.10;49.83;;;-1.60;99.90;;;;;;5090347;28;20033;-78
2022/04/04 04:10:28;;;;;;;85.05;53.22;;;-1.50;99.90;;;;;;5084201;28;20496;-77
2022/04/04 04:12:56;;;;;;;90.28;54.22;;;-1.50;99.90;;;;;;5065143;28;20049;-78
2022/04/04 04:15:25;;;;;;;92.18;58.20;;;-1.50;99.90;;;;;;5081819;28;20044;-79
2022/04/04 04:17:53;;;;;;;95.85;59.03;;;-1.40;99.90;;;;;;5063530;28;20045;-79
2022/04/04 04:20:19;;;;;;;93.97;58.17;;;-1.40;99.90;;;;;;5081074;28;20044;-77
2022/04/04 04:22:47;;;;;;;109.35;59.78;;;-1.40;99.90;;;;;;5090830;28;20062;-78
2022/04/04 04:25:15;;;;;;;96.40;60.00;;;-1.50;99.90;;;;;;5085675;28;20514;-78
2022/04/04 04:27:45;;;;;;;93.78;57.55;;;-1.50;99.90;;;;;;5083288;28;20043;-79
2022/04/04 04:30:13;;;;;;;96.97;59.13;;;-1.50;99.90;;;;;;5099469;28;20040;-78
2022/04/04 04:32:44;;;;;;;94.32;56.97;;;-1.50;99.90;;;;;;5099179;28;20048;-79
2022/04/04 04:35:12;;;;;;;101.38;60.22;;;-1.40;99.90;;;;;;5102186;28;20052;-79
2022/04/04 04:37:40;;;;;;;91.00;55.03;;;-1.40;99.90;;;;;;5095676;28;20059;-78
2022/04/04 04:40:08;;;;;;;92.85;57.22;;;-1.40;99.90;;;;;;5062576;28;20111;-78
2022/04/04 04:42:36;;;;;;;86.63;55.88;;;-1.40;99.90;;;;;;5060576;28;20079;-77
2022/04/04 04:45:06;;;;;;;94.63;57.63;;;-1.30;99.90;;;;;;5078868;28;20036;-78
2022/04/04 04:47:34;;;;;;;123.43;67.80;;;-1.30;99.90;;;;;;5088197;28;20525;-79
2022/04/04 04:50:03;;;;;;;126.22;71.47;;;-1.20;99.90;;;;;;5100390;28;20105;-79
2022/04/04 04:52:31;;;;;;;135.80;77.90;;;-1.20;99.90;;;;;;5083243;28;20044;-79
2022/04/04 04:55:00;;;;;;;145.98;81.22;;;-1.20;99.90;;;;;;5102985;28;20036;-77
2022/04/04 04:57:27;;;;;;;132.25;72.78;;;-1.10;99.90;;;;;;5078468;28;20403;-78
2022/04/04 04:59:56;;;;;;;149.77;78.00;;;-1.00;99.90;;;;;;5081914;28;20119;-78
2022/04/04 05:02:23;;;;;;;169.90;86.55;;;-1.00;99.90;;;;;;5098721;28;20079;-78
2022/04/04 05:04:51;;;;;;;165.65;85.90;;;-0.90;99.90;;;;;;5099770;28;20042;-79
2022/04/04 05:07:20;;;;;;;134.90;77.22;;;-1.00;99.90;;;;;;5099304;28;20093;-78
2022/04/04 05:09:47;;;;;;;116.38;65.35;;;-0.90;99.90;;;;;;5100592;28;20040;-78
2022/04/04 05:12:16;;;;;;;105.47;62.30;;;-0.80;99.90;;;;;;5082524;28;20048;-79
2022/04/04 05:14:44;;;;;;;101.43;59.33;;;-0.60;99.90;;;;;;5078368;28;20032;-78
2022/04/04 05:17:11;;;;;;;98.28;58.50;;;-0.40;99.90;;;;;;5077209;28;20113;-78
2022/04/04 05:19:39;;;;;;;91.72;54.30;;;-0.30;99.90;;;;;;5078201;28;20480;-78
2022/04/04 05:22:07;;;;;;;107.57;59.83;;;-0.10;99.90;;;;;;5075336;28;20074;-78
2022/04/04 05:24:36;;;;;;;111.22;62.38;;;0.00;99.90;;;;;;5099421;28;20526;-79
2022/04/04 05:27:04;;;;;;;118.18;64.15;;;0.10;99.90;;;;;;5081580;28;20095;-78
2022/04/04 05:29:31;;;;;;;113.32;62.33;;;0.30;99.90;;;;;;5082487;28;20566;-77
2022/04/04 05:31:59;;;;;;;109.88;59.72;;;0.10;99.90;;;;;;5097860;28;20040;-78
2022/04/04 05:34:27;;;;;;;109.30;64.22;;;0.30;99.90;;;;;;5099765;28;20043;-78
2022/04/04 05:36:54;;;;;;;110.55;58.95;;;0.40;99.90;;;;;;5098656;28;20051;-79
2022/04/04 05:39:22;;;;;;;107.70;58.17;;;0.70;99.90;;;;;;5094773;28;20042;-78
2022/04/04 05:41:52;;;;;;;100.70;58.47;;;0.80;99.90;;;;;;5087317;28;20048;-76
2022/04/04 05:44:19;;;;;;;111.40;62.38;;;0.90;99.90;;;;;;5095197;28;20064;-77
2022/04/04 05:46:47;;;;;;;92.40;54.28;;;1.10;99.90;;;;;;5095153;28;20094;-76
2022/04/04 05:49:15;;;;;;;89.32;53.05;;;1.30;99.90;;;;;;5076956;28;20044;-77
2022/04/04 05:51:42;;;;;;;86.15;49.97;;;1.50;99.90;;;;;;5066595;28;20131;-76
2022/04/04 05:54:10;;;;;;;78.28;47.83;;;1.70;99.90;;;;;;5088927;28;20040;-76
2022/04/04 05:56:38;;;;;;;77.40;47.50;;;2.00;99.90;;;;;;5076057;28;20044;-76
2022/04/04 05:59:07;;;;;;;73.05;46.60;;;2.40;99.90;;;;;;5095358;28;20040;-77
2022/04/04 06:01:35;;;;;;;71.45;44.60;;;2.90;99.90;;;;;;5086161;28;20036;-76
2022/04/04 06:04:03;;;;;;;79.45;47.58;;;3.60;99.90;;;;;;5077285;28;20063;-75
2022/04/04 06:06:31;;;;;;;73.03;43.90;;;4.30;99.90;;;;;;5074932;28;20049;-78
2022/04/04 06:08:58;;;;;;;69.57;45.83;;;4.60;99.90;;;;;;5058099;28;20072;-76
2022/04/04 06:11:25;;;;;;;66.97;43.72;;;5.10;99.90;;;;;;5074988;28;20041;-78
2022/04/04 06:13:53;;;;;;;68.97;42.83;;;5.20;99.90;;;;;;5076007;28;20138;-75
2022/04/04 06:16:22;;;;;;;69.35;41.55;;;5.10;99.90;;;;;;5077237;28;20048;-78
2022/04/04 06:18:50;;;;;;;62.40;41.55;;;5.00;99.90;;;;;;5079437;28;20479;-78
2022/04/04 06:21:18;;;;;;;63.92;42.95;;;4.90;99.90;;;;;;5060455;28;20056;-77
2022/04/04 06:23:46;;;;;;;73.63;46.08;;;5.00;99.90;;;;;;5074300;28;20094;-77
2022/04/04 06:26:13;;;;;;;75.53;45.72;;;5.20;99.90;;;;;;5075449;28;20050;-77
2022/04/04 06:28:41;;;;;;;64.68;37.63;;;5.20;99.90;;;;;;5058157;28;20045;-77
2022/04/04 06:31:10;;;;;;;63.65;37.63;;;5.30;99.90;;;;;;5074853;28;20083;-78
2022/04/04 06:33:39;;;;;;;66.45;40.60;;;5.40;99.90;;;;;;5057230;28;20048;-78
2022/04/04 06:36:07;;;;;;;69.60;41.83;;;5.40;99.90;;;;;;5063147;28;20057;-78
2022/04/04 06:38:36;;;;;;;68.03;42.65;;;5.60;99.90;;;;;;5055808;28;20040;-79
2022/04/04 06:41:05;;;;;;;88.95;43.92;;;6.00;99.90;;;;;;5057725;28;20047;-79
2022/04/04 06:43:32;;;;;;;72.15;43.13;;;6.20;99.90;;;;;;5074788;28;20040;-78
2022/04/04 06:46:00;;;;;;;78.63;44.95;;;6.30;99.90;;;;;;5079520;28;20500;-78
2022/04/04 06:48:28;;;;;;;85.25;49.92;;;6.30;99.90;;;;;;5084015;28;20102;-79
2022/04/04 06:50:59;;;;;;;70.18;42.85;;;6.40;99.90;;;;;;5077854;28;20041;-78
2022/04/04 06:53:26;;;;;;;65.45;39.53;;;6.40;99.90;;;;;;5076635;28;20049;-77
2022/04/04 06:55:54;;;;;;;53.33;33.95;;;6.30;99.90;;;;;;5061439;28;20045;-78
2022/04/04 06:58:22;;;;;;;54.70;34.55;;;6.40;99.90;;;;;;5076569;28;20047;-81
2022/04/04 07:00:49;;;;;;;52.28;31.90;;;6.60;99.90;;;;;;5077657;28;20043;-78
2022/04/04 07:03:17;;;;;;;53.80;33.92;;;7.00;99.90;;;;;;5091194;28;20072;-78
2022/04/04 07:05:44;;;;;;;69.95;41.17;;;7.20;99.90;;;;;;5079440;28;20045;-78
2022/04/04 07:08:13;;;;;;;71.95;42.97;;;7.30;99.90;;;;;;5093468;28;20109;-78
2022/04/04 07:10:41;;;;;;;70.43;44.28;;;7.20;99.90;;;;;;5084336;28;20051;-77
2022/04/04 07:13:08;;;;;;;90.18;43.30;;;7.00;99.90;;;;;;5081673;28;20044;-78
2022/04/04 07:15:36;;;;;;;72.95;44.03;;;6.80;99.90;;;;;;5081383;28;20467;-77
2022/04/04 07:18:04;;;;;;;76.60;44.53;;;6.80;99.90;;;;;;5086445;28;20060;-78
2022/04/04 07:20:32;;;;;;;68.32;41.72;;;7.00;99.90;;;;;;5091405;28;20050;-78
2022/04/04 07:23:01;;;;;;;75.70;41.95;;;7.10;99.90;;;;;;5080003;28;20045;-77
2022/04/04 07:25:30;;;;;;;66.18;44.08;;;7.40;99.90;;;;;;5097415;28;20052;-77
2022/04/04 07:27:57;;;;;;;80.78;49.22;;;7.60;99.90;;;;;;5098248;28;20494;-75
2022/04/04 07:30:26;;;;;;;82.47;50.08;;;7.90;99.90;;;;;;5096418;28;20075;-80
2022/04/04 07:32:54;;;;;;;82.65;51.58;;;7.90;99.90;;;;;;5095380;28;20044;-77
2022/04/04 07:35:22;;;;;;;85.15;52.78;;;7.90;99.90;;;;;;5082174;28;20048;-79
2022/04/04 07:37:51;;;;;;;84.70;51.78;;;8.10;99.90;;;;;;5076013;28;20051;-79
2022/04/04 07:40:20;;;;;;;85.13;53.20;;;8.40;99.90;;;;;;5081005;28;20119;-78
2022/04/04 07:42:50;;;;;;;93.10;54.80;;;8.30;99.90;;;;;;5098013;28;20120;-78
2022/04/04 07:45:18;;;;;;;88.20;55.33;;;8.50;99.90;;;;;;5103563;28;20123;-78
2022/04/04 07:47:47;;;;;;;95.00;57.55;;;8.30;99.90;;;;;;5106067;28;20112;-79
2022/04/04 07:50:15;;;;;;;88.55;56.33;;;8.70;99.90;;;;;;5111052;28;20117;-80
2022/04/04 07:52:43;;;;;;;91.18;54.70;;;9.40;99.90;;;;;;5085500;28;20087;-79
2022/04/04 07:55:11;;;;;;;82.47;53.72;;;9.80;99.90;;;;;;5075820;28;20079;-79
2022/04/04 07:57:39;;;;;;;80.47;51.83;;;10.00;99.90;;;;;;5082503;28;20062;-80
2022/04/04 08:00:09;;;;;;;81.47;52.30;;;10.10;99.90;;;;;;5100625;28;20099;-79
2022/04/04 08:02:37;;;;;;;79.03;51.05;;;10.10;99.90;;;;;;5092442;28;20044;-79
2022/04/04 08:05:07;;;;;;;77.57;49.80;;;10.10;99.90;;;;;;5074316;28;20045;-79
2022/04/04 08:07:34;;;;;;;74.22;47.17;;;10.10;99.90;;;;;;5087773;28;20045;-79
2022/04/04 08:10:02;;;;;;;64.05;45.00;;;9.90;99.90;;;;;;5076876;28;20112;-77
2022/04/04 08:12:30;;;;;;;73.22;49.47;;;10.00;99.90;;;;;;5091625;28;20040;-77
2022/04/04 08:14:58;;;;;;;76.30;47.50;;;10.10;99.90;;;;;;5098912;28;20071;-78
2022/04/04 08:17:27;;;;;;;69.38;47.63;;;10.40;99.90;;;;;;5111085;28;20035;-78
2022/04/04 08:19:55;;;;;;;66.85;45.60;;;10.50;99.90;;;;;;5113972;28;20052;-80
2022/04/04 08:22:22;;;;;;;69.45;44.53;;;10.80;99.90;;;;;;5065665;28;20500;-78
2022/04/04 08:24:50;;;;;;;65.70;43.55;;;10.70;99.90;;;;;;5077074;28;20037;-79
2022/04/04 08:27:18;;;;;;;64.97;43.00;;;10.80;99.90;;;;;;5061164;28;20120;-78
2022/04/04 08:29:45;;;;;;;63.55;41.90;;;10.80;99.90;;;;;;5062436;28;20132;-78
2022/04/04 08:32:13;;;;;;;75.50;49.55;;;10.60;99.90;;;;;;5061898;28;20147;-76
2022/04/04 08:34:42;;;;;;;77.45;50.70;;;10.80;99.90;;;;;;5062328;28;20037;-80
2022/04/04 08:37:10;;;;;;;72.22;47.95;;;11.00;99.90;;;;;;5061087;28;20122;-78
2022/04/04 08:39:37;;;;;;;64.53;41.45;;;11.10;99.90;;;;;;5060761;28;20037;-78
2022/04/04 08:42:05;;;;;;;45.78;32.55;;;11.10;99.90;;;;;;5060590;28;20055;-78
2022/04/04 08:44:36;;;;;;;39.95;25.40;;;11.00;99.90;;;;;;5062919;28;20060;-77
2022/04/04 08:47:05;;;;;;;58.38;31.75;;;10.60;99.90;;;;;;5066399;28;20045;-78
2022/04/04 08:49:32;;;;;;;49.83;30.98;;;10.90;99.90;;;;;;5063619;28;20504;-77
2022/04/04 08:52:01;;;;;;;41.03;26.20;;;10.70;99.90;;;;;;5042375;28;20067;-79
2022/04/04 08:54:28;;;;;;;51.63;32.97;;;11.00;99.90;;;;;;5060177;28;20037;-77
2022/04/04 08:56:56;;;;;;;51.80;33.47;;;11.20;99.90;;;;;;5077571;28;20036;-78
2022/04/04 08:59:24;;;;;;;43.13;28.10;;;11.10;99.90;;;;;;5062308;28;20040;-79
2022/04/04 09:01:51;;;;;;;46.33;28.85;;;11.50;99.90;;;;;;5082184;28;20059;-79
2022/04/04 09:04:19;;;;;;;39.38;25.45;;;11.70;99.90;;;;;;5061723;28;20087;-79
2022/04/04 09:06:48;;;;;;;41.17;24.27;;;12.10;99.90;;;;;;5069755;28;20047;-77
2022/04/04 09:09:21;;;;;;;39.35;24.52;;;11.80;99.90;;;;;;5082318;28;20041;-80
2022/04/04 09:12:10;;;;;;;32.92;22.23;;;11.50;99.90;;;;;;5063815;28;20202;-77
2022/04/04 09:14:44;;;;;;;30.48;19.33;;;11.50;99.90;;;;;;5081084;28;20102;-79
2022/04/04 09:17:13;;;;;;;29.77;19.20;;;11.30;99.90;;;;;;5081792;28;20036;-79
2022/04/04 09:19:42;;;;;;;25.75;17.55;;;11.50;99.90;;;;;;5064294;28;20050;-77
2022/04/04 09:22:11;;;;;;;26.58;17.30;;;11.80;99.90;;;;;;5080868;28;20102;-78
2022/04/04 09:24:52;;;;;;;24.48;15.55;;;11.70;99.60;;;;;;5081416;28;20399;-79
2022/04/04 09:27:24;;;;;;;27.15;16.20;;;11.70;99.10;;;;;;5063491;28;20048;-79
2022/04/04 09:29:54;;;;;;;21.88;14.95;;;11.80;98.50;;;;;;5079557;28;20045;-78
2022/04/04 09:32:22;;;;;;;14.18;10.00;;;11.80;99.10;;;;;;5079365;28;20124;-78
2022/04/04 09:35:00;;;;;;;15.00;8.95;;;11.40;97.70;;;;;;5061535;28;20049;-76
2022/04/04 09:37:30;;;;;;;12.52;8.07;;;11.30;97.00;;;;;;5060901;28;20050;-78
2022/04/04 09:40:16;;;;;;;16.42;10.10;;;11.00;96.10;;;;;;5079295;28;20043;-77
2022/04/04 09:42:44;;;;;;;12.02;7.78;;;11.00;96.70;;;;;;5061364;28;20059;-77
2022/04/04 09:45:15;;;;;;;13.10;8.43;;;11.30;96.40;;;;;;5061084;28;20048;-80
2022/04/04 09:47:54;;;;;;;15.82;8.60;;;11.50;96.20;;;;;;5061720;28;20052;-79
2022/04/04 09:50:46;;;;;;;13.15;8.18;;;11.70;95.20;;;;;;5060783;28;20041;-79
2022/04/04 09:53:15;;;;;;;9.55;6.43;;;11.80;93.70;;;;;;5078981;28;20052;-78
2022/04/04 09:55:46;;;;;;;14.15;6.60;;;11.60;92.60;;;;;;5061384;28;20118;-77
2022/04/04 09:58:15;;;;;;;13.98;5.97;;;11.50;92.00;;;;;;5061190;28;20045;-78
2022/04/04 10:00:44;;;;;;;9.68;5.70;;;11.20;93.90;;;;;;5078929;28;20408;-77
2022/04/04 10:03:13;;;;;;;9.65;5.60;;;11.10;91.70;;;;;;5077923;28;20040;-78
2022/04/04 10:05:43;;;;;;;9.52;5.72;;;10.70;91.40;;;;;;5079593;28;20052;-77
2022/04/04 10:08:13;;;;;;;9.32;6.32;;;10.70;91.40;;;;;;5078138;28;20044;-77
2022/04/04 10:10:41;;;;;;;7.90;5.63;;;10.70;91.70;;;;;;5078251;28;20040;-78
2022/04/04 10:13:11;;;;;;;11.55;5.97;;;10.70;91.60;;;;;;5078982;28;20062;-78
2022/04/04 10:15:39;;;;;;;8.30;5.32;;;11.00;92.50;;;;;;5061860;28;20052;-77
2022/04/04 10:18:08;;;;;;;12.57;6.28;;;10.90;92.30;;;;;;5078776;28;20127;-77
2022/04/04 10:20:36;;;;;;;8.85;5.90;;;11.10;92.50;;;;;;5078669;28;20055;-78
2022/04/04 10:23:06;;;;;;;8.02;5.53;;;11.20;91.40;;;;;;5060840;28;20093;-78
2022/04/04 10:25:35;;;;;;;8.63;5.63;;;11.30;91.10;;;;;;5078283;28;20036;-78
2022/04/04 10:28:02;;;;;;;8.73;5.95;;;11.30;91.30;;;;;;5062700;28;20051;-76
2022/04/04 10:30:40;;;;;;;9.98;5.95;;;11.60;90.90;;;;;;5065758;28;20079;-78
2022/04/04 10:33:18;;;;;;;10.40;6.15;;;11.60;89.80;;;;;;5085134;28;20055;-77
2022/04/04 10:36:00;;;;;;;10.13;6.47;;;11.60;89.20;;;;;;5081279;28;20128;-78
2022/04/04 10:38:30;;;;;;;9.68;5.40;;;11.70;87.30;;;;;;5060625;28;20058;-77
2022/04/04 10:40:58;;;;;;;8.10;4.95;;;11.70;87.40;;;;;;5078138;28;20049;-76
2022/04/04 10:43:31;;;;;;;9.15;4.78;;;11.30;87.20;;;;;;5077276;28;20423;-78
2022/04/04 10:46:02;;;;;;;6.20;4.40;;;11.30;86.70;;;;;;5078640;28;20123;-76
2022/04/04 10:48:31;;;;;;;7.22;4.38;;;11.40;85.70;;;;;;5079327;28;20048;-79
2022/04/04 10:51:04;;;;;;;9.43;5.03;;;11.60;84.90;;;;;;5061374;28;20103;-79
2022/04/04 10:53:44;;;;;;;9.70;5.38;;;12.00;87.00;;;;;;5079732;28;20469;-78
2022/04/04 10:56:18;;;;;;;6.97;4.00;;;12.40;85.80;;;;;;5061387;28;20044;-78
2022/04/04 10:58:46;;;;;;;6.38;4.05;;;12.20;84.40;;;;;;5078890;28;20044;-78
2022/04/04 11:01:18;;;;;;;8.95;3.95;;;12.40;83.00;;;;;;5084837;28;20056;-78
2022/04/04 11:04:00;;;;;;;6.80;4.25;;;12.50;83.00;;;;;;5084008;28;20127;-78
2022/04/04 11:09:26;;;;;;;7.10;3.55;;;12.50;82.20;;;;;;5066792;28;20052;-79
2022/04/04 11:12:09;;;;;;;9.90;4.50;;;12.40;80.20;;;;;;5068712;28;20143;-77
2022/04/04 11:14:54;;;;;;;6.60;3.95;;;12.50;83.00;;;;;;5067476;28;20059;-79
2022/04/04 11:17:30;;;;;;;10.00;4.38;;;12.80;82.40;;;;;;5069399;28;20042;-78
2022/04/04 11:20:04;;;;;;;5.25;3.70;;;13.10;81.50;;;;;;5083647;28;20096;-78
2022/04/04 11:22:35;;;;;;;4.80;3.40;;;12.80;80.90;;;;;;5061560;28;20048;-78
2022/04/04 11:25:05;;;;;;;9.63;3.90;;;13.00;80.70;;;;;;5081252;28;20112;-78
2022/04/04 11:27:34;;;;;;;7.70;3.80;;;13.30;81.00;;;;;;5062153;28;20048;-78
2022/04/04 11:30:05;;;;;;;7.35;3.47;;;13.30;78.10;;;;;;5078784;28;20441;-79
2022/04/04 11:32:40;;;;;;;5.40;3.67;;;13.00;78.80;;;;;;5076433;28;20330;-78
2022/04/04 11:35:14;;;;;;;9.30;3.58;;;12.50;79.00;;;;;;5059572;28;20491;-77
2022/04/04 11:37:43;;;;;;;6.13;3.78;;;12.40;80.30;;;;;;5046744;28;20124;-79
2022/04/04 11:40:14;;;;;;;7.28;3.63;;;12.30;81.00;;;;;;5057140;28;20481;-79
2022/04/04 11:42:50;;;;;;;9.60;4.85;;;12.00;81.30;;;;;;5055851;28;20053;-77
2022/04/04 11:45:19;;;;;;;8.75;5.97;;;12.10;82.60;;;;;;5055176;28;20045;-77
2022/04/04 11:47:53;;;;;;;8.60;5.05;;;12.20;83.40;;;;;;5066911;28;20040;-77
2022/04/04 11:50:23;;;;;;;6.97;4.53;;;12.30;83.20;;;;;;5074722;28;20115;-79
2022/04/04 11:52:52;;;;;;;6.13;3.72;;;12.30;81.80;;;;;;5060187;28;20150;-78
2022/04/04 11:55:21;;;;;;;5.70;3.42;;;12.40;82.10;;;;;;5054146;28;20045;-78
2022/04/04 11:57:49;;;;;;;10.07;4.75;;;12.30;80.70;;;;;;5037563;28;20053;-80
2022/04/04 12:00:27;;;;;;;12.68;5.38;;;12.30;81.70;;;;;;5055164;28;20052;-79
2022/04/04 12:02:56;;;;;;;7.90;3.75;;;12.40;81.20;;;;;;5054104;28;20064;-78
2022/04/04 12:05:24;;;;;;;9.60;4.30;;;12.50;80.00;;;;;;5053905;28;20053;-77
2022/04/04 12:07:52;;;;;;;7.72;3.65;;;12.10;80.30;;;;;;5054084;28;20120;-77
2022/04/04 12:10:31;;;;;;;7.93;3.78;;;11.90;80.60;;;;;;5055100;28;20037;-77
2022/04/04 12:13:04;;;;;;;7.15;3.70;;;11.80;81.10;;;;;;5039244;28;20049;-77
2022/04/04 12:15:34;;;;;;;6.28;3.85;;;11.80;80.70;;;;;;5058648;28;20044;-79
2022/04/04 12:18:04;;;;;;;8.38;4.65;;;11.90;80.90;;;;;;5058689;28;20113;-77
2022/04/04 12:20:40;;;;;;;8.80;3.95;;;12.00;82.00;;;;;;5048247;28;20061;-78
2022/04/04 12:25:58;;;;;;;7.93;4.70;;;12.20;82.00;;;;;;5051920;28;20045;-77
2022/04/04 12:28:29;;;;;;;11.63;4.68;;;12.30;81.70;;;;;;5070855;28;20043;-77
2022/04/04 12:30:57;;;;;;;11.43;5.78;;;12.30;82.40;;;;;;5069365;28;20048;-76
2022/04/04 12:33:35;;;;;;;9.25;4.50;;;12.50;82.20;;;;;;5043689;28;20052;-79
2022/04/04 12:36:02;;;;;;;10.65;4.57;;;12.70;80.60;;;;;;5058758;28;20052;-77
2022/04/04 12:38:32;;;;;;;14.23;6.90;;;12.80;80.10;;;;;;5040374;28;20041;-79
2022/04/04 12:41:04;;;;;;;7.80;4.95;;;12.90;80.50;;;;;;5039446;28;20496;-79
2022/04/04 12:43:32;;;;;;;10.85;6.20;;;12.80;79.20;;;;;;5039369;28;20052;-79
2022/04/04 12:45:59;;;;;;;9.50;5.03;;;12.70;80.40;;;;;;5041647;28;20051;-78
2022/04/04 12:48:36;;;;;;;16.40;5.80;;;12.70;79.70;;;;;;5077152;28;20047;-79
2022/04/04 12:51:05;;;;;;;9.73;4.82;;;12.60;80.10;;;;;;5051993;28;20060;-78